Time;durP1;ratioP1;P1;durP2;ratioP2;P2;SDS_P1;SDS_P2;PMS_P1;PMS_P2;Temp;Humidity;BMP_temperature;BMP_pressure;BME280_temperature;BME280_humidity;BME280_pressure;Samples;Min_cycle;Max_cycle;Signal;HPM_P1;HPM_P2
2021/07/29 00:01:40;;;;;;;3.95;3.55;;;;;;;;;;5104745;28;20198;-45
2021/07/29 00:04:06;;;;;;;4.30;3.60;;;;;;;;;;5098280;28;20578;-45
2021/07/29 00:06:33;;;;;;;3.33;3.03;;;;;;;;;;5099459;28;20201;-45
2021/07/29 00:08:59;;;;;;;3.83;3.05;;;;;;;;;;5102949;28;20185;-45
2021/07/29 00:11:25;;;;;;;3.80;3.22;;;;;;;;;;5104261;28;20199;-45
2021/07/29 00:13:53;;;;;;;4.55;3.35;;;;;;;;;;5098653;28;20173;-45
2021/07/29 00:16:21;;;;;;;4.22;3.10;;;;;;;;;;5100934;28;20174;-45
2021/07/29 00:21:29;;;;;;;4.32;3.20;;;;;;;;;;5102412;28;20268;-45
2021/07/29 00:23:55;;;;;;;3.40;3.10;;;;;;;;;;5099608;28;20273;-45
2021/07/29 00:26:20;;;;;;;3.33;3.03;;;;;;;;;;5095143;28;20197;-45
2021/07/29 00:28:46;;;;;;;3.30;3.00;;;;;;;;;;5096076;28;20224;-45
2021/07/29 00:31:12;;;;;;;3.45;3.15;;;;;;;;;;5099688;28;20177;-45
2021/07/29 00:33:38;;;;;;;3.15;2.85;;;;;;;;;;5091960;28;20452;-45
2021/07/29 00:36:05;;;;;;;4.30;3.22;;;;;;;;;;5097275;28;20253;-45
2021/07/29 00:38:31;;;;;;;3.50;3.20;;;;;;;;;;5109283;28;20173;-46
2021/07/29 00:40:57;;;;;;;3.22;2.92;;;;;;;;;;5097618;28;20201;-45
2021/07/29 00:43:23;;;;;;;3.83;3.33;;;;;;;;;;5095854;28;20213;-45
2021/07/29 00:45:50;;;;;;;3.20;2.90;;;;;;;;;;5097371;28;20198;-45
2021/07/29 00:48:18;;;;;;;3.58;3.22;;;;;;;;;;5096957;28;20161;-45
2021/07/29 00:50:44;;;;;;;3.88;3.00;;;;;;;;;;5097507;28;20230;-46
2021/07/29 00:53:10;;;;;;;3.00;2.75;;;;;;;;;;5109763;28;20560;-45
2021/07/29 00:55:36;;;;;;;3.53;3.08;;;;;;;;;;5095613;28;20275;-45
2021/07/29 00:58:02;;;;;;;3.83;3.53;;;;;;;;;;5083669;28;20249;-46
2021/07/29 01:00:28;;;;;;;3.67;3.15;;;;;;;;;;5090241;28;20255;-45
2021/07/29 01:02:54;;;;;;;3.05;2.85;;;;;;;;;;5085215;28;20601;-45
2021/07/29 01:05:21;;;;;;;2.80;2.60;;;;;;;;;;5091324;28;20206;-45
2021/07/29 01:07:47;;;;;;;3.67;2.63;;;;;;;;;;5106754;28;20557;-45
2021/07/29 01:10:13;;;;;;;3.60;2.78;;;;;;;;;;5084310;28;20183;-45
2021/07/29 01:12:39;;;;;;;3.97;3.05;;;;;;;;;;5114056;28;20181;-46
2021/07/29 01:15:05;;;;;;;3.45;3.15;;;;;;;;;;5104811;28;20203;-45
2021/07/29 01:17:33;;;;;;;3.10;2.90;;;;;;;;;;5107479;28;20240;-46
2021/07/29 01:19:59;;;;;;;3.15;2.90;;;;;;;;;;5096552;28;20173;-45
2021/07/29 01:22:29;;;;;;;3.20;2.90;;;;;;;;;;5100766;28;20185;-45
2021/07/29 01:24:55;;;;;;;3.50;3.20;;;;;;;;;;5097085;28;20275;-45
2021/07/29 01:27:21;;;;;;;2.70;2.50;;;;;;;;;;5116680;28;20185;-45
2021/07/29 01:29:47;;;;;;;2.67;2.47;;;;;;;;;;5096116;28;20174;-45
2021/07/29 01:32:14;;;;;;;2.97;2.67;;;;;;;;;;5092982;28;20588;-45
2021/07/29 01:34:40;;;;;;;3.10;2.80;;;;;;;;;;5096459;28;20184;-45
2021/07/29 01:37:06;;;;;;;3.33;2.65;;;;;;;;;;5099955;28;20253;-45
2021/07/29 01:39:32;;;;;;;3.05;2.75;;;;;;;;;;5096430;28;20264;-45
2021/07/29 01:41:58;;;;;;;3.65;2.47;;;;;;;;;;5096542;28;20184;-45
2021/07/29 01:44:24;;;;;;;3.38;2.70;;;;;;;;;;5096363;28;20174;-45
2021/07/29 01:46:50;;;;;;;2.85;2.50;;;;;;;;;;5088593;28;20188;-45
2021/07/29 01:49:22;;;;;;;2.78;2.58;;;;;;;;;;5095837;28;20802;-45
2021/07/29 01:51:48;;;;;;;2.72;2.53;;;;;;;;;;5101127;28;20185;-45
2021/07/29 01:54:14;;;;;;;3.58;2.47;;;;;;;;;;5098043;28;20171;-45
2021/07/29 01:56:41;;;;;;;2.50;2.30;;;;;;;;;;5093163;28;20203;-45
2021/07/29 01:59:07;;;;;;;2.55;2.35;;;;;;;;;;5079198;28;20185;-45
2021/07/29 02:01:33;;;;;;;2.80;2.60;;;;;;;;;;5098839;28;20242;-45
2021/07/29 02:03:59;;;;;;;3.55;2.15;;;;;;;;;;5101907;28;20457;-45
2021/07/29 02:06:25;;;;;;;2.83;2.58;;;;;;;;;;5084547;28;20279;-45
2021/07/29 02:08:51;;;;;;;2.60;2.40;;;;;;;;;;5106582;28;20182;-45
2021/07/29 02:11:17;;;;;;;3.05;2.72;;;;;;;;;;5090672;28;20248;-45
2021/07/29 02:13:43;;;;;;;2.55;2.28;;;;;;;;;;5107088;28;20306;-45
2021/07/29 02:16:13;;;;;;;2.35;2.15;;;;;;;;;;5083246;28;20178;-45
2021/07/29 02:18:39;;;;;;;2.95;2.60;;;;;;;;;;5099940;28;20185;-45
2021/07/29 02:21:09;;;;;;;2.95;2.75;;;;;;;;;;5102019;28;20442;-45
2021/07/29 02:23:36;;;;;;;5.03;2.50;;;;;;;;;;5099080;28;20568;-45
2021/07/29 02:26:02;;;;;;;2.97;2.78;;;;;;;;;;5094485;28;20254;-45
2021/07/29 02:28:28;;;;;;;4.38;2.58;;;;;;;;;;5082947;28;20170;-45
2021/07/29 02:30:55;;;;;;;4.03;2.90;;;;;;;;;;5089137;28;20212;-45
2021/07/29 02:33:21;;;;;;;3.13;2.83;;;;;;;;;;5096297;28;20169;-45
2021/07/29 02:35:50;;;;;;;4.13;2.78;;;;;;;;;;5085287;28;20500;-45
2021/07/29 02:38:16;;;;;;;3.58;2.15;;;;;;;;;;5106079;28;20177;-45
2021/07/29 02:40:43;;;;;;;3.20;2.38;;;;;;;;;;5100958;28;20185;-45
2021/07/29 02:43:09;;;;;;;3.33;2.05;;;;;;;;;;5115544;28;20200;-45
2021/07/29 02:45:35;;;;;;;3.55;2.15;;;;;;;;;;5100651;28;20244;-46
2021/07/29 02:48:00;;;;;;;2.13;2.03;;;;;;;;;;5109131;28;20181;-45
2021/07/29 02:50:26;;;;;;;2.65;2.45;;;;;;;;;;5115586;28;20201;-45
2021/07/29 02:52:52;;;;;;;3.08;2.58;;;;;;;;;;5107006;28;20192;-45
2021/07/29 02:55:20;;;;;;;3.53;2.60;;;;;;;;;;5109500;28;20182;-45
2021/07/29 02:57:46;;;;;;;2.50;2.28;;;;;;;;;;5094306;28;20157;-45
2021/07/29 03:00:12;;;;;;;2.53;2.13;;;;;;;;;;5088875;28;20494;-45
2021/07/29 03:02:38;;;;;;;3.85;2.65;;;;;;;;;;5098278;28;20631;-45
2021/07/29 03:05:04;;;;;;;2.33;2.13;;;;;;;;;;5094710;28;20193;-45
2021/07/29 03:07:33;;;;;;;2.42;2.22;;;;;;;;;;5099260;28;20705;-45
2021/07/29 03:09:59;;;;;;;3.72;2.45;;;;;;;;;;5099377;28;20169;-45
2021/07/29 03:12:25;;;;;;;2.60;2.40;;;;;;;;;;5107853;28;20177;-45
2021/07/29 03:14:51;;;;;;;4.68;2.60;;;;;;;;;;5087202;28;20603;-45
2021/07/29 03:17:17;;;;;;;3.08;2.40;;;;;;;;;;5086574;28;20186;-45
2021/07/29 03:19:43;;;;;;;2.53;2.33;;;;;;;;;;5108746;28;20539;-46
2021/07/29 03:22:09;;;;;;;2.53;2.33;;;;;;;;;;5100949;28;20178;-45
2021/07/29 03:24:35;;;;;;;3.08;2.78;;;;;;;;;;5092670;28;20459;-45
2021/07/29 03:27:01;;;;;;;2.42;2.22;;;;;;;;;;5092269;28;20178;-45
2021/07/29 03:29:27;;;;;;;3.28;2.38;;;;;;;;;;5092035;28;20768;-45
2021/07/29 03:31:56;;;;;;;2.80;2.50;;;;;;;;;;5100939;28;20176;-45
2021/07/29 03:34:22;;;;;;;2.50;2.30;;;;;;;;;;5091861;28;20591;-45
2021/07/29 03:36:48;;;;;;;2.75;2.55;;;;;;;;;;5098150;28;20257;-45
2021/07/29 03:39:14;;;;;;;2.63;2.38;;;;;;;;;;5104835;28;20572;-45
2021/07/29 03:41:40;;;;;;;2.60;2.40;;;;;;;;;;5095256;28;20181;-45
2021/07/29 03:44:06;;;;;;;2.40;2.20;;;;;;;;;;5093630;28;20182;-45
2021/07/29 03:46:32;;;;;;;6.75;2.70;;;;;;;;;;5084475;28;20210;-45
2021/07/29 03:48:58;;;;;;;3.78;2.63;;;;;;;;;;5073738;28;20171;-45
2021/07/29 03:51:25;;;;;;;2.33;2.13;;;;;;;;;;5096655;28;20177;-45
2021/07/29 03:53:51;;;;;;;2.53;2.33;;;;;;;;;;5081829;28;20166;-45
2021/07/29 03:56:18;;;;;;;3.30;2.47;;;;;;;;;;5090327;28;20178;-45
2021/07/29 03:58:44;;;;;;;20.52;6.25;;;;;;;;;;5088226;28;20314;-45
2021/07/29 04:01:10;;;;;;;28.42;8.98;;;;;;;;;;5102487;28;20668;-45
2021/07/29 04:03:37;;;;;;;36.90;9.50;;;;;;;;;;5094599;28;20178;-45
2021/07/29 04:06:03;;;;;;;36.17;9.95;;;;;;;;;;5093838;28;20473;-45
2021/07/29 04:08:29;;;;;;;46.60;10.15;;;;;;;;;;5105893;28;20182;-45
2021/07/29 04:10:58;;;;;;;27.50;8.40;;;;;;;;;;5100700;28;20167;-45
2021/07/29 04:13:24;;;;;;;29.23;8.13;;;;;;;;;;5078902;28;20726;-45
2021/07/29 04:16:00;;;;;;;21.05;6.25;;;;;;;;;;5073805;28;20197;-45
2021/07/29 04:18:26;;;;;;;20.63;6.63;;;;;;;;;;5073504;28;20167;-45
2021/07/29 04:20:52;;;;;;;20.95;6.93;;;;;;;;;;5096249;28;20169;-45
2021/07/29 04:23:18;;;;;;;41.15;12.35;;;;;;;;;;5098797;28;20196;-45
2021/07/29 04:25:44;;;;;;;54.47;14.57;;;;;;;;;;5092753;28;20244;-45
2021/07/29 04:28:10;;;;;;;76.97;20.35;;;;;;;;;;5084404;28;20182;-45
2021/07/29 04:30:36;;;;;;;49.33;15.65;;;;;;;;;;5081891;28;20256;-45
2021/07/29 04:33:02;;;;;;;55.28;16.77;;;;;;;;;;5099011;28;20598;-45
2021/07/29 04:35:27;;;;;;;41.08;11.75;;;;;;;;;;5095535;28;20211;-45
2021/07/29 04:37:53;;;;;;;39.83;11.43;;;;;;;;;;5102612;28;20205;-45
2021/07/29 04:40:19;;;;;;;34.00;11.13;;;;;;;;;;5093625;28;20174;-45
2021/07/29 04:42:45;;;;;;;32.42;9.95;;;;;;;;;;5073605;28;20198;-45
2021/07/29 04:45:12;;;;;;;28.65;9.52;;;;;;;;;;5074723;28;20217;-45
2021/07/29 04:47:38;;;;;;;32.40;10.93;;;;;;;;;;5113161;28;20177;-46
2021/07/29 04:50:04;;;;;;;34.20;9.45;;;;;;;;;;5117136;28;20161;-45
2021/07/29 04:52:30;;;;;;;28.90;9.68;;;;;;;;;;5104663;28;20181;-45
2021/07/29 04:54:56;;;;;;;28.20;8.68;;;;;;;;;;5100320;28;20189;-45
2021/07/29 04:57:21;;;;;;;25.73;9.13;;;;;;;;;;5114496;28;20181;-45
2021/07/29 04:59:48;;;;;;;26.70;8.90;;;;;;;;;;5117740;28;20435;-45
2021/07/29 05:02:17;;;;;;;23.80;8.35;;;;;;;;;;5113273;28;20436;-45
2021/07/29 05:04:43;;;;;;;22.83;8.48;;;;;;;;;;5089145;28;20185;-47
2021/07/29 05:07:12;;;;;;;24.45;8.48;;;;;;;;;;5110426;28;20455;-45
2021/07/29 05:09:38;;;;;;;21.50;7.85;;;;;;;;;;5090567;28;20261;-45
2021/07/29 05:12:04;;;;;;;19.42;7.10;;;;;;;;;;5091752;28;20193;-45
2021/07/29 05:14:30;;;;;;;17.65;6.93;;;;;;;;;;5096990;28;20177;-45
2021/07/29 05:17:00;;;;;;;16.58;6.05;;;;;;;;;;5111019;28;20174;-45
2021/07/29 05:19:26;;;;;;;14.98;5.50;;;;;;;;;;5116406;28;20199;-45
2021/07/29 05:21:52;;;;;;;16.63;6.22;;;;;;;;;;5111316;28;20288;-45
2021/07/29 05:24:18;;;;;;;14.55;5.88;;;;;;;;;;5099249;28;20585;-45
2021/07/29 05:26:44;;;;;;;12.52;5.68;;;;;;;;;;5101681;28;20211;-45
2021/07/29 05:29:10;;;;;;;13.15;6.20;;;;;;;;;;5116596;28;20559;-45
2021/07/29 05:31:40;;;;;;;13.98;5.80;;;;;;;;;;5116920;28;20268;-45
2021/07/29 05:34:06;;;;;;;11.23;4.93;;;;;;;;;;5097391;28;20170;-45
2021/07/29 05:36:32;;;;;;;10.68;5.20;;;;;;;;;;5104940;28;20197;-45
2021/07/29 05:38:58;;;;;;;11.68;5.10;;;;;;;;;;5095581;28;20174;-45
2021/07/29 05:41:25;;;;;;;10.48;5.40;;;;;;;;;;5096325;28;20182;-45
2021/07/29 05:43:51;;;;;;;10.05;4.88;;;;;;;;;;5082603;28;20181;-45
2021/07/29 05:46:17;;;;;;;9.50;4.35;;;;;;;;;;5092178;28;20197;-45
2021/07/29 05:48:43;;;;;;;9.80;4.90;;;;;;;;;;5115931;28;20177;-45
2021/07/29 05:51:09;;;;;;;9.68;4.40;;;;;;;;;;5116352;28;20168;-45
2021/07/29 05:53:35;;;;;;;8.45;4.03;;;;;;;;;;5093654;28;20219;-45
2021/07/29 05:56:01;;;;;;;9.77;4.93;;;;;;;;;;5101413;28;20177;-45
2021/07/29 05:58:27;;;;;;;9.60;4.43;;;;;;;;;;5107765;28;20189;-45
2021/07/29 06:00:54;;;;;;;8.73;3.85;;;;;;;;;;5112334;28;20180;-45
2021/07/29 06:03:20;;;;;;;7.50;4.05;;;;;;;;;;5114741;28;20215;-45
2021/07/29 06:05:46;;;;;;;9.00;3.92;;;;;;;;;;5094228;28;20584;-45
2021/07/29 06:08:12;;;;;;;10.18;4.07;;;;;;;;;;5096611;28;20185;-45
2021/07/29 06:10:39;;;;;;;5.68;3.72;;;;;;;;;;5098623;28;20302;-45
2021/07/29 06:13:05;;;;;;;5.65;3.28;;;;;;;;;;5095743;28;20441;-45
2021/07/29 06:15:31;;;;;;;4.97;3.60;;;;;;;;;;5096191;28;20178;-45
2021/07/29 06:18:01;;;;;;;5.65;3.67;;;;;;;;;;5115279;28;20315;-45
2021/07/29 06:20:27;;;;;;;6.82;3.25;;;;;;;;;;5106984;28;20178;-45
2021/07/29 06:22:53;;;;;;;6.28;3.30;;;;;;;;;;5100230;28;20192;-45
2021/07/29 06:25:19;;;;;;;6.22;3.30;;;;;;;;;;5095423;28;20532;-44
2021/07/29 06:27:47;;;;;;;5.65;3.47;;;;;;;;;;5095234;28;20189;-44
2021/07/29 06:30:14;;;;;;;6.15;3.08;;;;;;;;;;5095027;28;20688;-44
2021/07/29 06:32:40;;;;;;;7.32;3.30;;;;;;;;;;5101016;28;20173;-44
2021/07/29 06:35:06;;;;;;;3.72;3.00;;;;;;;;;;5115820;28;20260;-44
2021/07/29 06:37:32;;;;;;;5.90;2.90;;;;;;;;;;5103055;28;20197;-45
2021/07/29 06:39:58;;;;;;;6.70;3.05;;;;;;;;;;5100219;28;20173;-44
2021/07/29 06:42:24;;;;;;;6.03;3.20;;;;;;;;;;5093440;28;20174;-45
2021/07/29 06:44:50;;;;;;;6.88;2.97;;;;;;;;;;5074696;28;20198;-45
2021/07/29 06:47:24;;;;;;;4.82;2.88;;;;;;;;;;5093571;28;20178;-45
2021/07/29 06:49:50;;;;;;;6.43;3.15;;;;;;;;;;5095237;28;20531;-45
2021/07/29 06:52:17;;;;;;;5.72;2.90;;;;;;;;;;5093837;28;20177;-45
2021/07/29 06:54:43;;;;;;;3.47;2.60;;;;;;;;;;5081673;28;20174;-44
2021/07/29 06:57:09;;;;;;;5.78;2.97;;;;;;;;;;5109011;28;20183;-44
2021/07/29 06:59:36;;;;;;;6.97;3.05;;;;;;;;;;5101247;28;20640;-44
2021/07/29 07:02:02;;;;;;;6.97;2.95;;;;;;;;;;5095121;28;20471;-44
2021/07/29 07:04:29;;;;;;;4.72;3.05;;;;;;;;;;5093614;28;20185;-45
2021/07/29 07:06:56;;;;;;;3.75;2.63;;;;;;;;;;5091764;28;20212;-45
2021/07/29 07:09:22;;;;;;;4.05;2.63;;;;;;;;;;5094812;28;20778;-45
2021/07/29 07:11:48;;;;;;;6.78;3.10;;;;;;;;;;5093951;28;20182;-45
2021/07/29 07:14:14;;;;;;;3.55;2.75;;;;;;;;;;5094799;28;20181;-45
2021/07/29 07:16:40;;;;;;;5.05;2.55;;;;;;;;;;5096117;28;20208;-45
2021/07/29 07:19:06;;;;;;;5.22;2.80;;;;;;;;;;5095750;28;20188;-45
2021/07/29 07:21:32;;;;;;;5.78;3.28;;;;;;;;;;5095170;28;20189;-45
2021/07/29 07:23:58;;;;;;;3.28;2.65;;;;;;;;;;5104632;28;20190;-45
2021/07/29 07:26:25;;;;;;;4.90;2.72;;;;;;;;;;5094510;28;20206;-45
2021/07/29 07:28:52;;;;;;;3.30;3.00;;;;;;;;;;5084563;28;20258;-45
2021/07/29 07:31:18;;;;;;;4.65;3.08;;;;;;;;;;5074379;28;20557;-45
2021/07/29 07:33:44;;;;;;;5.85;2.60;;;;;;;;;;5101898;28;20498;-45
2021/07/29 07:36:10;;;;;;;3.63;2.58;;;;;;;;;;5101774;28;20197;-44
2021/07/29 07:38:36;;;;;;;4.57;2.65;;;;;;;;;;5096366;28;20625;-45
2021/07/29 07:41:09;;;;;;;4.00;2.75;;;;;;;;;;5095166;28;20181;-44
2021/07/29 07:43:35;;;;;;;5.20;2.90;;;;;;;;;;5094435;28;20169;-45
2021/07/29 07:46:02;;;;;;;3.50;2.90;;;;;;;;;;5100838;28;20209;-44
2021/07/29 07:48:28;;;;;;;3.15;2.45;;;;;;;;;;5114306;28;20177;-45
2021/07/29 07:50:55;;;;;;;5.53;2.70;;;;;;;;;;5092888;28;20181;-45
2021/07/29 07:53:24;;;;;;;2.30;2.10;;;;;;;;;;5105132;28;20449;-45
2021/07/29 07:55:51;;;;;;;3.25;2.55;;;;;;;;;;5098603;28;20181;-45
2021/07/29 07:58:17;;;;;;;3.78;2.72;;;;;;;;;;5114238;28;20161;-45
2021/07/29 08:00:43;;;;;;;2.83;2.47;;;;;;;;;;5104569;28;20194;-45
2021/07/29 08:03:09;;;;;;;3.47;2.42;;;;;;;;;;5094473;28;20545;-44
2021/07/29 08:05:35;;;;;;;3.20;2.60;;;;;;;;;;5091588;28;20227;-45
2021/07/29 08:08:01;;;;;;;4.85;2.50;;;;;;;;;;5091463;28;20616;-45
2021/07/29 08:10:30;;;;;;;4.47;2.40;;;;;;;;;;5094764;28;20215;-44
2021/07/29 08:12:56;;;;;;;3.15;2.58;;;;;;;;;;5094022;28;20166;-45
2021/07/29 08:15:22;;;;;;;3.20;2.90;;;;;;;;;;5094863;28;20185;-45
2021/07/29 08:17:49;;;;;;;3.10;2.80;;;;;;;;;;5093707;28;20170;-44
2021/07/29 08:20:18;;;;;;;3.97;2.40;;;;;;;;;;5102837;28;20210;-45
2021/07/29 08:22:44;;;;;;;3.08;2.55;;;;;;;;;;5094067;28;20209;-44
2021/07/29 08:25:12;;;;;;;2.70;2.50;;;;;;;;;;5093911;28;20240;-45
2021/07/29 08:27:38;;;;;;;3.10;2.80;;;;;;;;;;5097707;28;20184;-45
2021/07/29 08:30:04;;;;;;;3.20;2.35;;;;;;;;;;5097782;28;20673;-45
2021/07/29 08:32:30;;;;;;;2.80;2.60;;;;;;;;;;5111688;28;20199;-45
2021/07/29 08:34:56;;;;;;;4.13;2.80;;;;;;;;;;5097955;28;20265;-45
2021/07/29 08:37:23;;;;;;;4.25;2.70;;;;;;;;;;5106962;28;20243;-45
2021/07/29 08:39:49;;;;;;;3.70;2.88;;;;;;;;;;5096932;28;20174;-45
2021/07/29 08:42:15;;;;;;;3.00;2.70;;;;;;;;;;5097623;28;20231;-45
2021/07/29 08:44:40;;;;;;;3.33;3.00;;;;;;;;;;5097406;28;20174;-45
2021/07/29 08:47:11;;;;;;;3.67;2.70;;;;;;;;;;5111569;28;20188;-45
2021/07/29 08:49:41;;;;;;;2.90;2.35;;;;;;;;;;5099120;28;20178;-45
2021/07/29 08:52:07;;;;;;;3.70;3.28;;;;;;;;;;5100715;28;20177;-44
2021/07/29 08:54:37;;;;;;;3.15;2.50;;;;;;;;;;5117874;28;20575;-45
2021/07/29 08:57:03;;;;;;;3.53;2.78;;;;;;;;;;5110364;28;20180;-44
2021/07/29 08:59:29;;;;;;;4.80;2.75;;;;;;;;;;5097296;28;20626;-44
2021/07/29 09:01:56;;;;;;;2.70;2.28;;;;;;;;;;5097471;28;20185;-45
2021/07/29 09:04:22;;;;;;;3.15;2.50;;;;;;;;;;5108530;28;20181;-45
2021/07/29 09:07:06;;;;;;;2.67;2.47;;;;;;;;;;5099516;28;20197;-45
2021/07/29 09:09:45;;;;;;;2.60;2.33;;;;;;;;;;5099243;28;20543;-45
2021/07/29 09:12:23;;;;;;;4.97;3.00;;;;;;;;;;5100745;28;20197;-45
2021/07/29 09:14:49;;;;;;;3.13;2.40;;;;;;;;;;5085403;28;20553;-45
2021/07/29 09:17:16;;;;;;;17.10;7.65;;;;;;;;;;5101040;28;20230;-45
2021/07/29 09:19:44;;;;;;;11.65;6.18;;;;;;;;;;5110103;28;20228;-45
2021/07/29 09:22:22;;;;;;;9.20;4.28;;;;;;;;;;5101659;28;20272;-45
2021/07/29 09:25:01;;;;;;;5.85;3.78;;;;;;;;;;5114686;28;20435;-45
2021/07/29 09:27:28;;;;;;;3.83;3.15;;;;;;;;;;5116005;28;20181;-45
2021/07/29 09:29:54;;;;;;;6.60;3.58;;;;;;;;;;5087880;28;20178;-44
2021/07/29 09:32:22;;;;;;;5.07;3.03;;;;;;;;;;5082272;28;20184;-44
2021/07/29 09:34:52;;;;;;;6.03;3.10;;;;;;;;;;5102311;28;20170;-44
2021/07/29 09:37:19;;;;;;;3.13;2.83;;;;;;;;;;5096316;28;20203;-45
2021/07/29 09:39:47;;;;;;;5.47;2.83;;;;;;;;;;5096182;28;20181;-44
2021/07/29 09:42:20;;;;;;;4.22;3.65;;;;;;;;;;5099375;28;20180;-44
2021/07/29 09:44:47;;;;;;;5.35;3.15;;;;;;;;;;5087045;28;20434;-44
2021/07/29 09:47:14;;;;;;;4.47;2.78;;;;;;;;;;5084377;28;20174;-45
2021/07/29 09:49:40;;;;;;;3.88;2.72;;;;;;;;;;5079675;28;20178;-44
2021/07/29 09:52:07;;;;;;;3.97;3.10;;;;;;;;;;5084277;28;20189;-45
2021/07/29 09:54:36;;;;;;;4.93;3.47;;;;;;;;;;5108440;28;20181;-44
2021/07/29 09:57:02;;;;;;;4.05;2.65;;;;;;;;;;5108573;28;20174;-45
2021/07/29 09:59:28;;;;;;;3.97;3.03;;;;;;;;;;5095473;28;20186;-45
2021/07/29 10:01:55;;;;;;;5.47;2.63;;;;;;;;;;5082861;28;20308;-45
2021/07/29 10:04:42;;;;;;;3.45;2.85;;;;;;;;;;5093835;28;20181;-45
2021/07/29 10:07:11;;;;;;;6.80;3.17;;;;;;;;;;5080278;28;20174;-45
2021/07/29 10:09:40;;;;;;;5.10;2.83;;;;;;;;;;5086540;28;20170;-44
2021/07/29 10:12:07;;;;;;;6.30;3.03;;;;;;;;;;5077748;28;20181;-45
2021/07/29 10:14:45;;;;;;;3.60;2.95;;;;;;;;;;5097089;28;20173;-45
2021/07/29 10:17:11;;;;;;;5.53;2.90;;;;;;;;;;5080825;28;20174;-44
2021/07/29 10:19:57;;;;;;;4.47;2.78;;;;;;;;;;5087017;28;20189;-45
2021/07/29 10:22:23;;;;;;;2.95;2.28;;;;;;;;;;5093328;28;20178;-44
2021/07/29 10:24:53;;;;;;;5.72;2.78;;;;;;;;;;5091290;28;20190;-45
2021/07/29 10:27:19;;;;;;;4.38;2.70;;;;;;;;;;5095230;28;20587;-45
2021/07/29 10:29:45;;;;;;;5.55;2.70;;;;;;;;;;5080025;28;20186;-45
2021/07/29 10:32:12;;;;;;;5.72;2.55;;;;;;;;;;5093766;28;20903;-45
2021/07/29 10:34:38;;;;;;;3.78;2.70;;;;;;;;;;5099079;28;20415;-45
2021/07/29 10:37:05;;;;;;;3.47;2.63;;;;;;;;;;5093607;28;20209;-45
2021/07/29 10:39:32;;;;;;;4.03;2.80;;;;;;;;;;5097218;28;20182;-45
2021/07/29 10:41:58;;;;;;;3.22;2.55;;;;;;;;;;5095329;28;20162;-45
2021/07/29 10:44:36;;;;;;;4.47;2.63;;;;;;;;;;5095055;28;20260;-45
2021/07/29 10:47:14;;;;;;;4.38;2.42;;;;;;;;;;5079773;28;20201;-45
2021/07/29 10:49:46;;;;;;;3.13;2.38;;;;;;;;;;5095187;28;20169;-45
2021/07/29 10:52:12;;;;;;;3.65;2.38;;;;;;;;;;5098216;28;20174;-45
2021/07/29 10:54:39;;;;;;;5.28;2.70;;;;;;;;;;5074290;28;20213;-45
2021/07/29 10:57:06;;;;;;;5.10;2.42;;;;;;;;;;5098286;28;20550;-45
2021/07/29 10:59:33;;;;;;;2.83;2.50;;;;;;;;;;5094176;28;20174;-45
2021/07/29 11:02:06;;;;;;;4.72;2.67;;;;;;;;;;5078760;28;20250;-45
2021/07/29 11:04:50;;;;;;;4.43;2.85;;;;;;;;;;5100183;28;20252;-45
2021/07/29 11:07:16;;;;;;;3.10;2.60;;;;;;;;;;5098129;28;20193;-45
2021/07/29 11:09:43;;;;;;;4.35;2.80;;;;;;;;;;5093952;28;20182;-45
2021/07/29 11:12:13;;;;;;;4.35;2.65;;;;;;;;;;5094479;28;20205;-44
2021/07/29 11:14:39;;;;;;;3.97;2.45;;;;;;;;;;5098585;28;20179;-45
2021/07/29 11:17:05;;;;;;;3.55;2.80;;;;;;;;;;5094386;28;20440;-44
2021/07/29 11:19:42;;;;;;;3.05;2.50;;;;;;;;;;5094491;28;20194;-45
2021/07/29 11:22:09;;;;;;;6.07;2.80;;;;;;;;;;5103822;28;20176;-45
2021/07/29 11:24:35;;;;;;;2.97;2.65;;;;;;;;;;5097189;28;20212;-45
2021/07/29 11:27:02;;;;;;;3.17;2.72;;;;;;;;;;5091064;28;20209;-45
2021/07/29 11:29:28;;;;;;;3.10;2.53;;;;;;;;;;5092760;28;20177;-45
2021/07/29 11:31:55;;;;;;;4.10;2.60;;;;;;;;;;5088064;28;20174;-45
2021/07/29 11:34:30;;;;;;;3.33;2.70;;;;;;;;;;5096786;28;20173;-45
2021/07/29 11:36:57;;;;;;;6.47;3.03;;;;;;;;;;5093189;28;20212;-45
2021/07/29 11:39:25;;;;;;;3.20;2.90;;;;;;;;;;5079060;28;20182;-45
2021/07/29 11:41:52;;;;;;;3.78;2.58;;;;;;;;;;5074127;28;20433;-45
2021/07/29 11:44:18;;;;;;;4.70;2.75;;;;;;;;;;5073848;28;20447;-45
2021/07/29 11:46:54;;;;;;;4.32;3.05;;;;;;;;;;5094358;28;20197;-45
2021/07/29 11:49:20;;;;;;;7.28;2.72;;;;;;;;;;5099412;28;20180;-44
2021/07/29 11:52:18;;;;;;;3.53;2.72;;;;;;;;;;5098021;28;20177;-45
2021/07/29 11:54:44;;;;;;;7.65;3.05;;;;;;;;;;5034445;28;20189;-45
2021/07/29 11:57:12;;;;;;;9.30;3.20;;;;;;;;;;5103454;28;20217;-45
2021/07/29 11:59:42;;;;;;;7.03;3.38;;;;;;;;;;5082151;28;20183;-45
2021/07/29 12:02:09;;;;;;;8.45;3.30;;;;;;;;;;5099783;28;20169;-45
2021/07/29 12:04:39;;;;;;;4.80;3.22;;;;;;;;;;5109785;28;20712;-46
2021/07/29 12:07:06;;;;;;;4.38;3.05;;;;;;;;;;5096817;28;20209;-45
2021/07/29 12:09:33;;;;;;;5.25;2.88;;;;;;;;;;5071712;28;20234;-45
2021/07/29 12:11:59;;;;;;;4.47;2.95;;;;;;;;;;5079521;28;20220;-45
2021/07/29 12:14:26;;;;;;;5.95;2.88;;;;;;;;;;5098454;28;20170;-45
2021/07/29 12:16:53;;;;;;;5.82;2.60;;;;;;;;;;5098182;28;20215;-45
2021/07/29 12:19:20;;;;;;;3.75;2.90;;;;;;;;;;5098933;28;20188;-44
2021/07/29 12:21:46;;;;;;;3.25;2.50;;;;;;;;;;5112506;28;20467;-45
2021/07/29 12:24:13;;;;;;;5.82;3.15;;;;;;;;;;5083404;28;20201;-45
2021/07/29 12:26:39;;;;;;;4.78;3.08;;;;;;;;;;5097214;28;20221;-45
2021/07/29 12:29:05;;;;;;;3.67;3.22;;;;;;;;;;5094454;28;20257;-45
2021/07/29 12:31:32;;;;;;;3.97;3.10;;;;;;;;;;5115115;28;20553;-45
2021/07/29 12:33:59;;;;;;;7.10;3.22;;;;;;;;;;5099885;28;20745;-45
2021/07/29 12:36:26;;;;;;;7.53;3.45;;;;;;;;;;5094839;28;20219;-45
2021/07/29 12:39:01;;;;;;;5.22;3.30;;;;;;;;;;5090785;28;20173;-44
2021/07/29 12:41:33;;;;;;;3.95;3.15;;;;;;;;;;5115126;28;20191;-45
2021/07/29 12:44:13;;;;;;;3.88;3.15;;;;;;;;;;5118139;28;20298;-44
2021/07/29 12:46:39;;;;;;;4.22;2.85;;;;;;;;;;5090504;28;20588;-45
2021/07/29 12:49:06;;;;;;;4.07;3.13;;;;;;;;;;5083575;28;20206;-45
2021/07/29 12:51:47;;;;;;;3.00;2.70;;;;;;;;;;5103824;28;20165;-45
2021/07/29 12:54:14;;;;;;;5.28;2.95;;;;;;;;;;5097516;28;20166;-45
2021/07/29 12:56:40;;;;;;;5.97;2.95;;;;;;;;;;5096740;28;20173;-44
2021/07/29 12:59:07;;;;;;;3.70;2.88;;;;;;;;;;5096970;28;20234;-45
2021/07/29 13:01:33;;;;;;;3.30;3.00;;;;;;;;;;5114875;28;20551;-45
2021/07/29 13:03:59;;;;;;;5.75;3.13;;;;;;;;;;5101149;28;20224;-45
2021/07/29 13:06:25;;;;;;;5.75;3.00;;;;;;;;;;5083107;28;20213;-45
2021/07/29 13:08:54;;;;;;;5.45;3.03;;;;;;;;;;5106142;28;20181;-45
2021/07/29 13:11:21;;;;;;;5.45;3.22;;;;;;;;;;5097224;28;20174;-45
2021/07/29 13:13:47;;;;;;;4.65;3.10;;;;;;;;;;5097003;28;20215;-45
2021/07/29 13:16:13;;;;;;;4.72;2.67;;;;;;;;;;5095486;28;20177;-45
2021/07/29 13:18:39;;;;;;;7.40;3.33;;;;;;;;;;5096155;28;20206;-45
2021/07/29 13:21:06;;;;;;;4.05;3.08;;;;;;;;;;5096995;28;20200;-45
2021/07/29 13:23:32;;;;;;;5.05;3.28;;;;;;;;;;5097355;28;20182;-45
2021/07/29 13:25:59;;;;;;;5.45;3.53;;;;;;;;;;5096809;28;20197;-45
2021/07/29 13:28:26;;;;;;;5.22;3.28;;;;;;;;;;5095934;28;20464;-45
2021/07/29 13:30:52;;;;;;;5.70;3.42;;;;;;;;;;5095546;28;20638;-45
2021/07/29 13:33:18;;;;;;;3.17;2.88;;;;;;;;;;5094039;28;20182;-45
2021/07/29 13:35:45;;;;;;;3.35;2.75;;;;;;;;;;5080565;28;20188;-45
2021/07/29 13:38:11;;;;;;;3.10;2.75;;;;;;;;;;5108761;28;20717;-45
2021/07/29 13:40:37;;;;;;;3.25;2.92;;;;;;;;;;5104136;28;20238;-45
2021/07/29 13:43:03;;;;;;;3.10;2.80;;;;;;;;;;5077927;28;20246;-45
2021/07/29 13:45:29;;;;;;;4.30;3.35;;;;;;;;;;5084369;28;20202;-45
2021/07/29 13:47:56;;;;;;;3.25;2.50;;;;;;;;;;5094318;28;20257;-45
2021/07/29 13:50:23;;;;;;;4.57;2.78;;;;;;;;;;5098857;28;20189;-45
2021/07/29 13:52:50;;;;;;;3.58;2.70;;;;;;;;;;5105815;28;20181;-44
2021/07/29 13:55:16;;;;;;;2.85;2.60;;;;;;;;;;5099134;28;20173;-45
2021/07/29 13:57:42;;;;;;;4.95;3.10;;;;;;;;;;5091831;28;20202;-45
2021/07/29 14:00:09;;;;;;;5.28;2.95;;;;;;;;;;5095217;28;20479;-45
2021/07/29 14:02:35;;;;;;;3.67;3.00;;;;;;;;;;5100376;28;20185;-46
2021/07/29 14:05:02;;;;;;;3.58;2.78;;;;;;;;;;5095855;28;20253;-45
2021/07/29 14:07:28;;;;;;;4.25;3.00;;;;;;;;;;5101821;28;20264;-45
2021/07/29 14:09:54;;;;;;;3.15;2.70;;;;;;;;;;5108791;28;20300;-45
2021/07/29 14:12:24;;;;;;;6.38;2.85;;;;;;;;;;5116315;28;20169;-45
2021/07/29 14:14:50;;;;;;;4.40;2.78;;;;;;;;;;5115975;28;20161;-45
2021/07/29 14:17:42;;;;;;;3.80;2.72;;;;;;;;;;5112785;28;20219;-45
2021/07/29 14:25:18;;;;;;;5.53;3.17;;;;;;;;;;5098172;28;20723;-45
2021/07/29 14:27:44;;;;;;;5.70;2.47;;;;;;;;;;5091308;28;20177;-45
2021/07/29 14:30:10;;;;;;;3.25;2.70;;;;;;;;;;5095781;28;20252;-45
2021/07/29 14:32:36;;;;;;;4.95;3.30;;;;;;;;;;5091509;28;20185;-45
2021/07/29 14:35:03;;;;;;;2.90;2.38;;;;;;;;;;5109086;28;20224;-45
2021/07/29 14:37:29;;;;;;;4.72;2.63;;;;;;;;;;5096092;28;20177;-45
2021/07/29 14:39:58;;;;;;;5.15;2.88;;;;;;;;;;5111203;28;20224;-45
2021/07/29 14:42:24;;;;;;;8.73;3.15;;;;;;;;;;5097902;28;20193;-45
2021/07/29 14:50:08;;;;;;;4.35;2.80;;;;;;;;;;5107294;28;20268;-45
2021/07/29 14:52:34;;;;;;;3.33;3.03;;;;;;;;;;5107866;28;20182;-45
2021/07/29 14:55:12;;;;;;;3.55;2.70;;;;;;;;;;5095090;28;20442;-45